sensor_id;sensor_type;location;lat;lon;timestamp;P1;durP1;ratioP1;P2;durP2;ratioP2
23898;SDS011;20544;50.018;20.010;2023-03-21T00:01:31;29.90;;;24.38;;
23898;SDS011;20544;50.018;20.010;2023-03-21T00:04:47;26.68;;;23.55;;
23898;SDS011;20544;50.018;20.010;2023-03-21T00:08:06;29.90;;;22.50;;
23898;SDS011;20544;50.018;20.010;2023-03-21T00:11:22;26.05;;;21.68;;
23898;SDS011;20544;50.018;20.010;2023-03-21T00:14:38;25.48;;;21.43;;
23898;SDS011;20544;50.018;20.010;2023-03-21T00:17:55;26.98;;;23.88;;
23898;SDS011;20544;50.018;20.010;2023-03-21T00:21:15;26.00;;;21.28;;
23898;SDS011;20544;50.018;20.010;2023-03-21T00:24:36;28.98;;;23.65;;
23898;SDS011;20544;50.018;20.010;2023-03-21T00:27:52;27.13;;;22.65;;
23898;SDS011;20544;50.018;20.010;2023-03-21T00:31:11;29.55;;;24.53;;
23898;SDS011;20544;50.018;20.010;2023-03-21T00:34:27;26.93;;;23.78;;
23898;SDS011;20544;50.018;20.010;2023-03-21T00:37:46;29.28;;;22.63;;
23898;SDS011;20544;50.018;20.010;2023-03-21T00:41:04;29.93;;;24.60;;
23898;SDS011;20544;50.018;20.010;2023-03-21T00:44:25;29.20;;;24.58;;
23898;SDS011;20544;50.018;20.010;2023-03-21T00:47:42;29.00;;;25.70;;
23898;SDS011;20544;50.018;20.010;2023-03-21T00:50:59;26.90;;;21.98;;
23898;SDS011;20544;50.018;20.010;2023-03-21T00:54:18;26.45;;;22.93;;
23898;SDS011;20544;50.018;20.010;2023-03-21T00:57:35;29.40;;;24.83;;
23898;SDS011;20544;50.018;20.010;2023-03-21T01:00:53;26.97;;;23.50;;
23898;SDS011;20544;50.018;20.010;2023-03-21T01:04:10;29.20;;;24.65;;
23898;SDS011;20544;50.018;20.010;2023-03-21T01:07:27;28.23;;;24.28;;
23898;SDS011;20544;50.018;20.010;2023-03-21T01:10:44;29.20;;;25.63;;
23898;SDS011;20544;50.018;20.010;2023-03-21T01:14:02;32.60;;;26.20;;
23898;SDS011;20544;50.018;20.010;2023-03-21T01:17:21;28.50;;;25.15;;
23898;SDS011;20544;50.018;20.010;2023-03-21T01:20:38;29.15;;;24.73;;
23898;SDS011;20544;50.018;20.010;2023-03-21T01:23:57;29.60;;;24.33;;
23898;SDS011;20544;50.018;20.010;2023-03-21T01:27:13;27.68;;;23.88;;
23898;SDS011;20544;50.018;20.010;2023-03-21T01:30:30;30.25;;;24.08;;
23898;SDS011;20544;50.018;20.010;2023-03-21T01:33:47;26.75;;;23.35;;
23898;SDS011;20544;50.018;20.010;2023-03-21T01:37:04;29.20;;;24.30;;
23898;SDS011;20544;50.018;20.010;2023-03-21T01:40:23;31.90;;;25.05;;
23898;SDS011;20544;50.018;20.010;2023-03-21T01:43:48;29.60;;;24.25;;
23898;SDS011;20544;50.018;20.010;2023-03-21T01:47:07;28.47;;;25.37;;
23898;SDS011;20544;50.018;20.010;2023-03-21T01:50:23;29.80;;;25.63;;
23898;SDS011;20544;50.018;20.010;2023-03-21T01:53:41;32.33;;;27.00;;
23898;SDS011;20544;50.018;20.010;2023-03-21T01:57:00;29.83;;;24.78;;
23898;SDS011;20544;50.018;20.010;2023-03-21T02:00:19;30.13;;;25.45;;
23898;SDS011;20544;50.018;20.010;2023-03-21T02:03:43;29.73;;;25.50;;
23898;SDS011;20544;50.018;20.010;2023-03-21T02:07:03;29.28;;;25.83;;
23898;SDS011;20544;50.018;20.010;2023-03-21T02:10:26;32.28;;;27.43;;
23898;SDS011;20544;50.018;20.010;2023-03-21T02:13:46;31.30;;;26.08;;
23898;SDS011;20544;50.018;20.010;2023-03-21T02:17:07;30.40;;;24.90;;
23898;SDS011;20544;50.018;20.010;2023-03-21T02:24:55;29.73;;;24.78;;
23898;SDS011;20544;50.018;20.010;2023-03-21T02:28:42;28.23;;;25.18;;
23898;SDS011;20544;50.018;20.010;2023-03-21T02:32:03;28.20;;;25.13;;
23898;SDS011;20544;50.018;20.010;2023-03-21T02:35:48;30.40;;;25.75;;
23898;SDS011;20544;50.018;20.010;2023-03-21T02:39:21;30.83;;;24.88;;
23898;SDS011;20544;50.018;20.010;2023-03-21T02:42:45;28.25;;;24.98;;
23898;SDS011;20544;50.018;20.010;2023-03-21T02:46:13;33.88;;;24.55;;
23898;SDS011;20544;50.018;20.010;2023-03-21T02:49:36;29.03;;;23.75;;
23898;SDS011;20544;50.018;20.010;2023-03-21T02:52:58;27.78;;;24.50;;
23898;SDS011;20544;50.018;20.010;2023-03-21T02:56:19;28.43;;;24.15;;
23898;SDS011;20544;50.018;20.010;2023-03-21T02:59:38;28.60;;;24.63;;
23898;SDS011;20544;50.018;20.010;2023-03-21T03:02:59;30.30;;;24.70;;
23898;SDS011;20544;50.018;20.010;2023-03-21T03:06:18;29.73;;;25.30;;
23898;SDS011;20544;50.018;20.010;2023-03-21T03:09:41;30.75;;;24.75;;
23898;SDS011;20544;50.018;20.010;2023-03-21T03:13:20;27.08;;;23.78;;
23898;SDS011;20544;50.018;20.010;2023-03-21T03:16:52;35.28;;;27.70;;
23898;SDS011;20544;50.018;20.010;2023-03-21T03:20:22;33.18;;;27.90;;
23898;SDS011;20544;50.018;20.010;2023-03-21T03:23:45;33.65;;;26.58;;
23898;SDS011;20544;50.018;20.010;2023-03-21T03:27:07;32.58;;;27.53;;
23898;SDS011;20544;50.018;20.010;2023-03-21T03:30:28;32.10;;;26.38;;
23898;SDS011;20544;50.018;20.010;2023-03-21T03:33:48;32.78;;;28.58;;
23898;SDS011;20544;50.018;20.010;2023-03-21T03:37:10;31.43;;;26.38;;
23898;SDS011;20544;50.018;20.010;2023-03-21T03:40:36;32.48;;;26.95;;
23898;SDS011;20544;50.018;20.010;2023-03-21T03:44:11;32.30;;;26.90;;
23898;SDS011;20544;50.018;20.010;2023-03-21T03:47:31;33.88;;;28.90;;
23898;SDS011;20544;50.018;20.010;2023-03-21T03:50:52;33.08;;;28.70;;
23898;SDS011;20544;50.018;20.010;2023-03-21T03:54:21;32.80;;;29.23;;
23898;SDS011;20544;50.018;20.010;2023-03-21T03:57:41;35.73;;;30.00;;
23898;SDS011;20544;50.018;20.010;2023-03-21T04:00:58;40.08;;;33.40;;
23898;SDS011;20544;50.018;20.010;2023-03-21T04:04:15;41.48;;;35.03;;
23898;SDS011;20544;50.018;20.010;2023-03-21T04:10:48;44.45;;;36.08;;
23898;SDS011;20544;50.018;20.010;2023-03-21T04:14:05;43.38;;;36.48;;
23898;SDS011;20544;50.018;20.010;2023-03-21T04:17:22;41.18;;;34.58;;
23898;SDS011;20544;50.018;20.010;2023-03-21T04:20:38;44.58;;;38.08;;
23898;SDS011;20544;50.018;20.010;2023-03-21T04:23:55;49.25;;;38.60;;
23898;SDS011;20544;50.018;20.010;2023-03-21T04:27:13;46.60;;;38.93;;
23898;SDS011;20544;50.018;20.010;2023-03-21T04:30:44;46.65;;;37.95;;
23898;SDS011;20544;50.018;20.010;2023-03-21T04:34:04;47.35;;;38.63;;
23898;SDS011;20544;50.018;20.010;2023-03-21T04:37:22;49.30;;;39.53;;
23898;SDS011;20544;50.018;20.010;2023-03-21T04:40:40;46.30;;;38.90;;
23898;SDS011;20544;50.018;20.010;2023-03-21T04:43:56;43.55;;;36.23;;
23898;SDS011;20544;50.018;20.010;2023-03-21T04:47:14;46.50;;;38.28;;
23898;SDS011;20544;50.018;20.010;2023-03-21T04:50:32;45.68;;;38.75;;
23898;SDS011;20544;50.018;20.010;2023-03-21T04:53:48;42.78;;;35.08;;
23898;SDS011;20544;50.018;20.010;2023-03-21T04:57:04;44.18;;;36.53;;
23898;SDS011;20544;50.018;20.010;2023-03-21T05:00:21;45.73;;;36.53;;
23898;SDS011;20544;50.018;20.010;2023-03-21T05:03:37;45.88;;;35.80;;
23898;SDS011;20544;50.018;20.010;2023-03-21T05:06:54;44.33;;;35.30;;
23898;SDS011;20544;50.018;20.010;2023-03-21T05:10:11;52.48;;;35.68;;
23898;SDS011;20544;50.018;20.010;2023-03-21T05:13:27;42.10;;;31.88;;
23898;SDS011;20544;50.018;20.010;2023-03-21T05:16:44;38.48;;;31.28;;
23898;SDS011;20544;50.018;20.010;2023-03-21T05:20:04;38.35;;;30.05;;
23898;SDS011;20544;50.018;20.010;2023-03-21T05:23:23;37.35;;;29.98;;
23898;SDS011;20544;50.018;20.010;2023-03-21T05:26:42;34.20;;;28.47;;
23898;SDS011;20544;50.018;20.010;2023-03-21T05:30:06;35.25;;;29.55;;
23898;SDS011;20544;50.018;20.010;2023-03-21T05:33:26;36.35;;;28.70;;
23898;SDS011;20544;50.018;20.010;2023-03-21T05:36:43;35.18;;;27.80;;
23898;SDS011;20544;50.018;20.010;2023-03-21T05:40:01;33.93;;;25.60;;
23898;SDS011;20544;50.018;20.010;2023-03-21T05:43:21;33.75;;;26.93;;
23898;SDS011;20544;50.018;20.010;2023-03-21T05:46:38;30.98;;;24.98;;
23898;SDS011;20544;50.018;20.010;2023-03-21T05:49:56;30.93;;;25.35;;
23898;SDS011;20544;50.018;20.010;2023-03-21T05:53:13;29.33;;;24.53;;
23898;SDS011;20544;50.018;20.010;2023-03-21T05:56:29;30.20;;;24.58;;
23898;SDS011;20544;50.018;20.010;2023-03-21T05:59:47;29.35;;;22.13;;
23898;SDS011;20544;50.018;20.010;2023-03-21T06:03:04;32.68;;;24.68;;
23898;SDS011;20544;50.018;20.010;2023-03-21T06:06:35;29.68;;;23.80;;
23898;SDS011;20544;50.018;20.010;2023-03-21T06:09:51;30.75;;;22.58;;
23898;SDS011;20544;50.018;20.010;2023-03-21T06:13:07;33.58;;;23.30;;
23898;SDS011;20544;50.018;20.010;2023-03-21T06:16:24;28.28;;;21.43;;
23898;SDS011;20544;50.018;20.010;2023-03-21T06:19:40;24.88;;;19.95;;
23898;SDS011;20544;50.018;20.010;2023-03-21T06:23:01;26.10;;;19.03;;
23898;SDS011;20544;50.018;20.010;2023-03-21T06:26:17;22.80;;;18.25;;
23898;SDS011;20544;50.018;20.010;2023-03-21T06:29:33;21.53;;;17.75;;
23898;SDS011;20544;50.018;20.010;2023-03-21T06:32:50;22.95;;;17.05;;
23898;SDS011;20544;50.018;20.010;2023-03-21T06:36:07;17.90;;;15.03;;
23898;SDS011;20544;50.018;20.010;2023-03-21T06:39:24;17.78;;;14.30;;
23898;SDS011;20544;50.018;20.010;2023-03-21T06:42:40;17.48;;;13.73;;
23898;SDS011;20544;50.018;20.010;2023-03-21T06:45:57;18.60;;;14.25;;
23898;SDS011;20544;50.018;20.010;2023-03-21T06:49:14;15.93;;;12.93;;
23898;SDS011;20544;50.018;20.010;2023-03-21T06:52:33;15.50;;;12.83;;
23898;SDS011;20544;50.018;20.010;2023-03-21T06:55:50;16.13;;;12.65;;
23898;SDS011;20544;50.018;20.010;2023-03-21T06:59:08;15.65;;;12.65;;
23898;SDS011;20544;50.018;20.010;2023-03-21T07:05:47;14.35;;;11.45;;
23898;SDS011;20544;50.018;20.010;2023-03-21T07:09:04;12.98;;;10.33;;
23898;SDS011;20544;50.018;20.010;2023-03-21T07:12:23;15.00;;;10.80;;
23898;SDS011;20544;50.018;20.010;2023-03-21T07:15:44;11.40;;;9.43;;
23898;SDS011;20544;50.018;20.010;2023-03-21T07:19:02;11.85;;;9.68;;
23898;SDS011;20544;50.018;20.010;2023-03-21T07:22:18;11.08;;;8.38;;
23898;SDS011;20544;50.018;20.010;2023-03-21T07:25:34;9.88;;;7.80;;
23898;SDS011;20544;50.018;20.010;2023-03-21T07:28:51;11.00;;;8.13;;
23898;SDS011;20544;50.018;20.010;2023-03-21T07:32:07;9.68;;;7.48;;
23898;SDS011;20544;50.018;20.010;2023-03-21T07:35:23;10.00;;;7.55;;
23898;SDS011;20544;50.018;20.010;2023-03-21T07:38:40;7.43;;;6.65;;
23898;SDS011;20544;50.018;20.010;2023-03-21T07:41:58;8.63;;;6.85;;
23898;SDS011;20544;50.018;20.010;2023-03-21T07:45:17;8.30;;;7.05;;
23898;SDS011;20544;50.018;20.010;2023-03-21T07:48:34;10.38;;;7.53;;
23898;SDS011;20544;50.018;20.010;2023-03-21T07:51:50;8.80;;;7.50;;
23898;SDS011;20544;50.018;20.010;2023-03-21T07:55:10;8.85;;;7.63;;
23898;SDS011;20544;50.018;20.010;2023-03-21T07:58:27;10.03;;;7.33;;
23898;SDS011;20544;50.018;20.010;2023-03-21T08:01:44;11.10;;;8.45;;
23898;SDS011;20544;50.018;20.010;2023-03-21T08:05:00;9.65;;;7.83;;
23898;SDS011;20544;50.018;20.010;2023-03-21T08:08:17;10.23;;;8.48;;
23898;SDS011;20544;50.018;20.010;2023-03-21T08:11:33;10.03;;;7.68;;
23898;SDS011;20544;50.018;20.010;2023-03-21T08:14:50;9.20;;;6.93;;
23898;SDS011;20544;50.018;20.010;2023-03-21T08:18:07;9.20;;;8.05;;
23898;SDS011;20544;50.018;20.010;2023-03-21T08:21:23;8.75;;;7.63;;
23898;SDS011;20544;50.018;20.010;2023-03-21T08:24:40;7.98;;;6.85;;
23898;SDS011;20544;50.018;20.010;2023-03-21T08:27:56;7.75;;;6.60;;
23898;SDS011;20544;50.018;20.010;2023-03-21T08:31:13;7.63;;;6.40;;
23898;SDS011;20544;50.018;20.010;2023-03-21T08:34:31;8.10;;;6.80;;
23898;SDS011;20544;50.018;20.010;2023-03-21T08:37:49;9.05;;;7.10;;
23898;SDS011;20544;50.018;20.010;2023-03-21T08:41:07;9.55;;;7.13;;
23898;SDS011;20544;50.018;20.010;2023-03-21T08:44:26;9.33;;;7.43;;
23898;SDS011;20544;50.018;20.010;2023-03-21T08:47:44;8.93;;;7.95;;
23898;SDS011;20544;50.018;20.010;2023-03-21T08:51:02;9.35;;;7.75;;
23898;SDS011;20544;50.018;20.010;2023-03-21T08:54:20;9.58;;;8.10;;
23898;SDS011;20544;50.018;20.010;2023-03-21T08:57:37;9.60;;;7.78;;
23898;SDS011;20544;50.018;20.010;2023-03-21T09:00:54;9.88;;;8.28;;
23898;SDS011;20544;50.018;20.010;2023-03-21T09:04:11;9.95;;;8.03;;
23898;SDS011;20544;50.018;20.010;2023-03-21T09:07:28;11.28;;;9.13;;
23898;SDS011;20544;50.018;20.010;2023-03-21T09:10:45;9.45;;;7.50;;
23898;SDS011;20544;50.018;20.010;2023-03-21T09:14:04;8.58;;;6.38;;
23898;SDS011;20544;50.018;20.010;2023-03-21T09:17:21;8.33;;;6.90;;
23898;SDS011;20544;50.018;20.010;2023-03-21T09:20:38;9.38;;;7.45;;
23898;SDS011;20544;50.018;20.010;2023-03-21T09:23:56;10.18;;;7.58;;
23898;SDS011;20544;50.018;20.010;2023-03-21T09:27:13;8.65;;;6.88;;
23898;SDS011;20544;50.018;20.010;2023-03-21T09:30:32;9.90;;;8.70;;
23898;SDS011;20544;50.018;20.010;2023-03-21T09:33:51;10.77;;;8.70;;
23898;SDS011;20544;50.018;20.010;2023-03-21T09:37:08;12.48;;;10.50;;
23898;SDS011;20544;50.018;20.010;2023-03-21T09:40:35;13.68;;;11.90;;
23898;SDS011;20544;50.018;20.010;2023-03-21T09:44:04;15.48;;;12.28;;
23898;SDS011;20544;50.018;20.010;2023-03-21T09:47:44;31.05;;;23.48;;
23898;SDS011;20544;50.018;20.010;2023-03-21T09:51:04;14.50;;;12.18;;
23898;SDS011;20544;50.018;20.010;2023-03-21T09:54:27;13.43;;;11.28;;
23898;SDS011;20544;50.018;20.010;2023-03-21T09:57:46;13.48;;;10.43;;
23898;SDS011;20544;50.018;20.010;2023-03-21T10:01:10;12.08;;;10.08;;
23898;SDS011;20544;50.018;20.010;2023-03-21T10:04:33;14.38;;;12.05;;
23898;SDS011;20544;50.018;20.010;2023-03-21T10:07:53;14.20;;;11.05;;
23898;SDS011;20544;50.018;20.010;2023-03-21T10:11:14;10.80;;;9.65;;
23898;SDS011;20544;50.018;20.010;2023-03-21T10:14:34;15.53;;;12.45;;
23898;SDS011;20544;50.018;20.010;2023-03-21T10:17:55;15.05;;;12.93;;
23898;SDS011;20544;50.018;20.010;2023-03-21T10:21:18;15.13;;;13.53;;
23898;SDS011;20544;50.018;20.010;2023-03-21T10:24:39;17.15;;;14.00;;
23898;SDS011;20544;50.018;20.010;2023-03-21T10:27:56;33.90;;;16.70;;
23898;SDS011;20544;50.018;20.010;2023-03-21T10:31:15;19.63;;;16.13;;
23898;SDS011;20544;50.018;20.010;2023-03-21T10:34:36;36.63;;;28.23;;
23898;SDS011;20544;50.018;20.010;2023-03-21T10:37:56;34.08;;;25.78;;
23898;SDS011;20544;50.018;20.010;2023-03-21T10:41:13;23.50;;;19.53;;
23898;SDS011;20544;50.018;20.010;2023-03-21T10:44:30;19.20;;;17.10;;
23898;SDS011;20544;50.018;20.010;2023-03-21T10:47:49;21.25;;;17.88;;
23898;SDS011;20544;50.018;20.010;2023-03-21T10:51:07;24.00;;;19.08;;
23898;SDS011;20544;50.018;20.010;2023-03-21T10:54:28;21.83;;;18.35;;
23898;SDS011;20544;50.018;20.010;2023-03-21T10:57:46;22.00;;;19.13;;
23898;SDS011;20544;50.018;20.010;2023-03-21T11:01:07;22.65;;;18.88;;
23898;SDS011;20544;50.018;20.010;2023-03-21T11:04:30;25.70;;;19.03;;
23898;SDS011;20544;50.018;20.010;2023-03-21T11:07:47;22.10;;;18.53;;
23898;SDS011;20544;50.018;20.010;2023-03-21T11:11:09;25.10;;;20.35;;
23898;SDS011;20544;50.018;20.010;2023-03-21T11:14:36;100.58;;;74.75;;
23898;SDS011;20544;50.018;20.010;2023-03-21T11:21:09;26.35;;;20.18;;
23898;SDS011;20544;50.018;20.010;2023-03-21T11:24:29;23.68;;;19.70;;
23898;SDS011;20544;50.018;20.010;2023-03-21T11:27:51;24.77;;;20.03;;
23898;SDS011;20544;50.018;20.010;2023-03-21T11:31:09;22.55;;;19.13;;
23898;SDS011;20544;50.018;20.010;2023-03-21T11:34:26;21.73;;;18.85;;
23898;SDS011;20544;50.018;20.010;2023-03-21T11:37:51;23.05;;;18.90;;
23898;SDS011;20544;50.018;20.010;2023-03-21T11:41:08;21.20;;;17.50;;
23898;SDS011;20544;50.018;20.010;2023-03-21T11:44:40;20.90;;;17.88;;
23898;SDS011;20544;50.018;20.010;2023-03-21T11:47:58;21.55;;;19.25;;
23898;SDS011;20544;50.018;20.010;2023-03-21T11:51:21;24.48;;;19.48;;
23898;SDS011;20544;50.018;20.010;2023-03-21T11:54:49;25.95;;;19.43;;
23898;SDS011;20544;50.018;20.010;2023-03-21T11:58:38;22.93;;;17.90;;
23898;SDS011;20544;50.018;20.010;2023-03-21T12:02:11;20.85;;;16.60;;
23898;SDS011;20544;50.018;20.010;2023-03-21T12:05:38;22.80;;;18.33;;
23898;SDS011;20544;50.018;20.010;2023-03-21T12:09:14;24.15;;;17.98;;
23898;SDS011;20544;50.018;20.010;2023-03-21T12:12:41;18.83;;;16.45;;
23898;SDS011;20544;50.018;20.010;2023-03-21T12:16:04;20.65;;;16.80;;
23898;SDS011;20544;50.018;20.010;2023-03-21T12:23:10;23.33;;;19.83;;
23898;SDS011;20544;50.018;20.010;2023-03-21T12:26:54;28.00;;;21.93;;
23898;SDS011;20544;50.018;20.010;2023-03-21T12:30:18;25.30;;;22.10;;
23898;SDS011;20544;50.018;20.010;2023-03-21T12:33:47;25.45;;;20.98;;
23898;SDS011;20544;50.018;20.010;2023-03-21T12:37:14;29.85;;;24.45;;
23898;SDS011;20544;50.018;20.010;2023-03-21T12:40:38;29.20;;;25.10;;
23898;SDS011;20544;50.018;20.010;2023-03-21T12:44:13;29.38;;;24.25;;
23898;SDS011;20544;50.018;20.010;2023-03-21T12:47:32;29.13;;;24.45;;
23898;SDS011;20544;50.018;20.010;2023-03-21T12:50:52;28.60;;;24.15;;
23898;SDS011;20544;50.018;20.010;2023-03-21T12:54:13;29.35;;;23.13;;
23898;SDS011;20544;50.018;20.010;2023-03-21T12:57:35;31.05;;;25.93;;
23898;SDS011;20544;50.018;20.010;2023-03-21T13:00:59;32.38;;;27.58;;
23898;SDS011;20544;50.018;20.010;2023-03-21T13:04:25;32.23;;;27.50;;
23898;SDS011;20544;50.018;20.010;2023-03-21T13:07:53;32.00;;;26.58;;
23898;SDS011;20544;50.018;20.010;2023-03-21T13:11:13;30.20;;;26.53;;
23898;SDS011;20544;50.018;20.010;2023-03-21T13:14:34;30.93;;;25.10;;
23898;SDS011;20544;50.018;20.010;2023-03-21T13:17:56;29.38;;;25.15;;
23898;SDS011;20544;50.018;20.010;2023-03-21T13:21:20;29.38;;;25.33;;
23898;SDS011;20544;50.018;20.010;2023-03-21T13:24:45;30.78;;;25.58;;
23898;SDS011;20544;50.018;20.010;2023-03-21T13:28:03;31.73;;;25.13;;
23898;SDS011;20544;50.018;20.010;2023-03-21T13:31:31;31.10;;;26.13;;
23898;SDS011;20544;50.018;20.010;2023-03-21T13:34:55;30.83;;;25.88;;
23898;SDS011;20544;50.018;20.010;2023-03-21T13:38:17;34.80;;;27.23;;
23898;SDS011;20544;50.018;20.010;2023-03-21T13:41:37;33.35;;;28.38;;
23898;SDS011;20544;50.018;20.010;2023-03-21T13:44:59;33.83;;;27.48;;
23898;SDS011;20544;50.018;20.010;2023-03-21T13:48:27;35.65;;;28.53;;
23898;SDS011;20544;50.018;20.010;2023-03-21T13:51:51;32.55;;;27.78;;
23898;SDS011;20544;50.018;20.010;2023-03-21T13:55:13;34.53;;;27.53;;
23898;SDS011;20544;50.018;20.010;2023-03-21T13:58:33;34.00;;;28.18;;
23898;SDS011;20544;50.018;20.010;2023-03-21T14:05:16;36.58;;;29.28;;
23898;SDS011;20544;50.018;20.010;2023-03-21T14:08:35;32.93;;;27.98;;
23898;SDS011;20544;50.018;20.010;2023-03-21T14:15:14;33.28;;;27.68;;
23898;SDS011;20544;50.018;20.010;2023-03-21T14:18:40;33.55;;;28.25;;
23898;SDS011;20544;50.018;20.010;2023-03-21T14:22:01;36.20;;;29.40;;
23898;SDS011;20544;50.018;20.010;2023-03-21T14:25:24;37.55;;;31.25;;
23898;SDS011;20544;50.018;20.010;2023-03-21T14:28:47;33.95;;;27.63;;
23898;SDS011;20544;50.018;20.010;2023-03-21T14:32:05;35.57;;;30.00;;
23898;SDS011;20544;50.018;20.010;2023-03-21T14:35:31;40.60;;;32.28;;
23898;SDS011;20544;50.018;20.010;2023-03-21T14:38:56;37.85;;;30.48;;
23898;SDS011;20544;50.018;20.010;2023-03-21T14:42:23;34.68;;;27.55;;
23898;SDS011;20544;50.018;20.010;2023-03-21T14:45:41;37.23;;;29.03;;
23898;SDS011;20544;50.018;20.010;2023-03-21T14:49:10;36.70;;;29.30;;
23898;SDS011;20544;50.018;20.010;2023-03-21T14:52:34;30.60;;;26.55;;
23898;SDS011;20544;50.018;20.010;2023-03-21T14:55:55;33.45;;;25.88;;
23898;SDS011;20544;50.018;20.010;2023-03-21T14:59:14;32.10;;;26.00;;
23898;SDS011;20544;50.018;20.010;2023-03-21T15:02:34;32.13;;;25.48;;
23898;SDS011;20544;50.018;20.010;2023-03-21T15:05:53;30.65;;;25.45;;
23898;SDS011;20544;50.018;20.010;2023-03-21T15:09:15;36.70;;;26.60;;
23898;SDS011;20544;50.018;20.010;2023-03-21T15:12:33;31.85;;;25.18;;
23898;SDS011;20544;50.018;20.010;2023-03-21T15:15:53;32.80;;;25.40;;
23898;SDS011;20544;50.018;20.010;2023-03-21T15:19:11;40.83;;;34.15;;
23898;SDS011;20544;50.018;20.010;2023-03-21T15:22:31;33.55;;;24.25;;
23898;SDS011;20544;50.018;20.010;2023-03-21T15:25:50;30.65;;;24.25;;
23898;SDS011;20544;50.018;20.010;2023-03-21T15:29:07;26.78;;;21.90;;
23898;SDS011;20544;50.018;20.010;2023-03-21T15:32:26;26.73;;;21.70;;
23898;SDS011;20544;50.018;20.010;2023-03-21T15:35:44;28.68;;;22.58;;
23898;SDS011;20544;50.018;20.010;2023-03-21T15:39:06;29.43;;;22.53;;
23898;SDS011;20544;50.018;20.010;2023-03-21T15:42:29;28.98;;;22.38;;
23898;SDS011;20544;50.018;20.010;2023-03-21T15:45:50;25.40;;;20.38;;
23898;SDS011;20544;50.018;20.010;2023-03-21T15:49:09;105.08;;;71.13;;
23898;SDS011;20544;50.018;20.010;2023-03-21T15:52:40;59.05;;;39.43;;
23898;SDS011;20544;50.018;20.010;2023-03-21T15:55:57;36.03;;;26.15;;
23898;SDS011;20544;50.018;20.010;2023-03-21T15:59:17;27.98;;;22.10;;
23898;SDS011;20544;50.018;20.010;2023-03-21T16:02:36;27.95;;;21.83;;
23898;SDS011;20544;50.018;20.010;2023-03-21T16:06:15;28.00;;;21.38;;
23898;SDS011;20544;50.018;20.010;2023-03-21T16:09:41;25.83;;;20.90;;
23898;SDS011;20544;50.018;20.010;2023-03-21T16:13:00;27.10;;;21.23;;
23898;SDS011;20544;50.018;20.010;2023-03-21T16:16:18;25.58;;;21.03;;
23898;SDS011;20544;50.018;20.010;2023-03-21T16:19:37;27.15;;;21.25;;
23898;SDS011;20544;50.018;20.010;2023-03-21T16:22:54;27.28;;;20.70;;
23898;SDS011;20544;50.018;20.010;2023-03-21T16:26:12;26.55;;;20.63;;
23898;SDS011;20544;50.018;20.010;2023-03-21T16:29:31;25.50;;;21.03;;
23898;SDS011;20544;50.018;20.010;2023-03-21T16:32:48;24.90;;;20.68;;
23898;SDS011;20544;50.018;20.010;2023-03-21T16:36:05;28.85;;;21.03;;
23898;SDS011;20544;50.018;20.010;2023-03-21T16:39:26;26.55;;;21.08;;
23898;SDS011;20544;50.018;20.010;2023-03-21T16:42:43;27.60;;;22.08;;
23898;SDS011;20544;50.018;20.010;2023-03-21T16:45:59;27.80;;;21.88;;
23898;SDS011;20544;50.018;20.010;2023-03-21T16:49:19;30.98;;;25.33;;
23898;SDS011;20544;50.018;20.010;2023-03-21T16:52:38;44.33;;;34.88;;
23898;SDS011;20544;50.018;20.010;2023-03-21T16:55:54;50.03;;;39.20;;
23898;SDS011;20544;50.018;20.010;2023-03-21T16:59:12;54.90;;;39.58;;
23898;SDS011;20544;50.018;20.010;2023-03-21T17:02:29;53.58;;;41.53;;
23898;SDS011;20544;50.018;20.010;2023-03-21T17:05:46;54.33;;;40.38;;
23898;SDS011;20544;50.018;20.010;2023-03-21T17:09:02;48.13;;;38.25;;
23898;SDS011;20544;50.018;20.010;2023-03-21T17:12:20;52.00;;;39.40;;
23898;SDS011;20544;50.018;20.010;2023-03-21T17:15:37;50.28;;;39.48;;
23898;SDS011;20544;50.018;20.010;2023-03-21T17:18:53;51.78;;;39.75;;
23898;SDS011;20544;50.018;20.010;2023-03-21T17:22:10;48.55;;;38.95;;
23898;SDS011;20544;50.018;20.010;2023-03-21T17:25:27;48.83;;;38.35;;
23898;SDS011;20544;50.018;20.010;2023-03-21T17:28:43;52.30;;;39.25;;
23898;SDS011;20544;50.018;20.010;2023-03-21T17:32:00;47.10;;;36.85;;
23898;SDS011;20544;50.018;20.010;2023-03-21T17:38:33;49.50;;;35.53;;
23898;SDS011;20544;50.018;20.010;2023-03-21T17:41:51;46.70;;;36.13;;
23898;SDS011;20544;50.018;20.010;2023-03-21T17:45:09;51.03;;;39.35;;
23898;SDS011;20544;50.018;20.010;2023-03-21T17:48:26;47.43;;;37.30;;
23898;SDS011;20544;50.018;20.010;2023-03-21T17:51:43;47.68;;;35.78;;
23898;SDS011;20544;50.018;20.010;2023-03-21T17:55:00;49.78;;;36.68;;
23898;SDS011;20544;50.018;20.010;2023-03-21T17:58:19;48.63;;;37.03;;
23898;SDS011;20544;50.018;20.010;2023-03-21T18:01:37;47.03;;;36.00;;
23898;SDS011;20544;50.018;20.010;2023-03-21T18:04:53;49.40;;;37.55;;
23898;SDS011;20544;50.018;20.010;2023-03-21T18:08:10;56.48;;;42.53;;
23898;SDS011;20544;50.018;20.010;2023-03-21T18:11:27;57.33;;;41.10;;
23898;SDS011;20544;50.018;20.010;2023-03-21T18:14:43;54.78;;;41.75;;
23898;SDS011;20544;50.018;20.010;2023-03-21T18:17:59;55.80;;;42.73;;
23898;SDS011;20544;50.018;20.010;2023-03-21T18:21:18;54.50;;;41.85;;
23898;SDS011;20544;50.018;20.010;2023-03-21T18:24:36;56.08;;;42.85;;
23898;SDS011;20544;50.018;20.010;2023-03-21T18:27:55;55.43;;;41.55;;
23898;SDS011;20544;50.018;20.010;2023-03-21T18:31:14;55.88;;;42.55;;
23898;SDS011;20544;50.018;20.010;2023-03-21T18:34:35;53.45;;;41.45;;
23898;SDS011;20544;50.018;20.010;2023-03-21T18:37:52;72.70;;;52.60;;
23898;SDS011;20544;50.018;20.010;2023-03-21T18:41:09;60.63;;;45.88;;
23898;SDS011;20544;50.018;20.010;2023-03-21T18:44:27;57.90;;;45.48;;
23898;SDS011;20544;50.018;20.010;2023-03-21T18:47:47;58.95;;;45.18;;
23898;SDS011;20544;50.018;20.010;2023-03-21T18:51:03;63.28;;;46.93;;
23898;SDS011;20544;50.018;20.010;2023-03-21T18:54:21;60.70;;;46.28;;
23898;SDS011;20544;50.018;20.010;2023-03-21T18:57:38;53.75;;;41.30;;
23898;SDS011;20544;50.018;20.010;2023-03-21T19:00:54;59.63;;;45.40;;
23898;SDS011;20544;50.018;20.010;2023-03-21T19:04:13;60.05;;;45.58;;
23898;SDS011;20544;50.018;20.010;2023-03-21T19:10:46;52.40;;;41.03;;
23898;SDS011;20544;50.018;20.010;2023-03-21T19:14:07;54.33;;;41.23;;
23898;SDS011;20544;50.018;20.010;2023-03-21T19:17:25;54.03;;;41.00;;
23898;SDS011;20544;50.018;20.010;2023-03-21T19:20:44;60.43;;;43.53;;
23898;SDS011;20544;50.018;20.010;2023-03-21T19:24:05;55.23;;;43.18;;
23898;SDS011;20544;50.018;20.010;2023-03-21T19:27:23;58.73;;;43.53;;
23898;SDS011;20544;50.018;20.010;2023-03-21T19:30:40;61.30;;;46.38;;
23898;SDS011;20544;50.018;20.010;2023-03-21T19:34:00;62.80;;;47.03;;
23898;SDS011;20544;50.018;20.010;2023-03-21T19:37:18;66.28;;;49.25;;
23898;SDS011;20544;50.018;20.010;2023-03-21T19:40:41;60.70;;;46.15;;
23898;SDS011;20544;50.018;20.010;2023-03-21T19:44:00;59.05;;;44.73;;
23898;SDS011;20544;50.018;20.010;2023-03-21T19:47:21;56.90;;;43.93;;